Main page
METAR-TAF:

METAR-TAF

Airports :

Federico Fellini International Airport

Rimini, Italy

latitude: 44-02N, longitude: 012-37E, elevation: 12 m

Current weather observation

The report was made 49 minutes ago, at 17:50 UTC
Wind 8 kt from the East/Southeast
Temperature 23°C
Humidity 53%
Pressure 1015 hPa
Visibility 10 km or more
no clouds below 1500 m and no cumulonimbus

METAR: LIPR 141750Z 12008KT CAVOK 23/13 Q1015

Time: 20:39 (18:39 UTC)

Forecast

The report was made 1 hour and 39 minutes ago, at 17:00 UTC
Forecast valid from 14 at 18 UTC to 15 at 18 UTC
Wind 10 kt from the East
Visibility 10 km or more
no clouds below 1500 m and no cumulonimbus
Becoming
from 14 at 18 UTC to 14 at 20 UTC
Wind 5 kt from variable directions

TAF: LIPR 141700Z 1418/1518 09010KT CAVOK BECMG 1418/1420 VRB05KT

Weather observations and forecasts of more than 4000 airports (METAR and TAF reports).

The available stations are represented by yellow and red dots on the map.

Hover mouse over dot to see the name of the station.

Then click to see weather observations and forecasts.

To change the map : click on the green buttons with a black cross to zoom in, on the green button with a dash to zoom out, or on the green arrows for adjacent maps.


METAR-TAF: